Time;durP1;ratioP1;P1;durP2;ratioP2;P2;SDS_P1;SDS_P2;PMS_P1;PMS_P2;Temp;Humidity;BMP_temperature;BMP_pressure;BME280_temperature;BME280_humidity;BME280_pressure;Samples;Min_cycle;Max_cycle;Signal;HPM_P1;HPM_P2
2023/07/09 00:01:39;;;;;;;3.80;1.70;;;;;;;24.66;56.62;100056.40;107805;1288;21992;-62
2023/07/09 00:04:05;;;;;;;3.80;1.90;;;;;;;24.63;56.67;100056.27;107823;1280;21988;-65
2023/07/09 00:06:30;;;;;;;3.20;2.10;;;;;;;24.62;56.69;100056.32;107819;1289;21991;-60
2023/07/09 00:08:56;;;;;;;5.80;2.00;;;;;;;24.64;56.67;100059.38;107765;1289;21996;-65
2023/07/09 00:11:22;;;;;;;5.70;2.10;;;;;;;24.62;56.43;100061.00;107821;1289;21999;-64
2023/07/09 00:13:47;;;;;;;4.10;1.80;;;;;;;24.60;56.45;100059.73;107830;1289;22456;-61
2023/07/09 00:16:16;;;;;;;6.00;2.00;;;;;;;24.58;56.31;100059.14;107718;1284;149482;-64
2023/07/09 00:18:42;;;;;;;5.80;2.10;;;;;;;24.60;56.39;100059.02;107982;1289;24002;-61
2023/07/09 00:21:08;;;;;;;4.30;2.10;;;;;;;24.61;56.36;100054.91;108028;1289;22000;-64
2023/07/09 00:23:34;;;;;;;5.00;2.00;;;;;;;24.64;56.45;100054.55;108049;1289;21989;-65
2023/07/09 00:25:59;;;;;;;4.00;2.10;;;;;;;24.65;56.39;100055.55;107896;1283;21999;-61
2023/07/09 00:28:25;;;;;;;3.60;2.00;;;;;;;24.70;56.36;100056.80;107796;1283;21998;-63
2023/07/09 00:30:52;;;;;;;5.70;2.00;;;;;;;24.70;56.13;100049.97;107820;1286;22060;-60
2023/07/09 00:33:18;;;;;;;4.40;1.90;;;;;;;24.70;56.16;100048.74;107709;1290;21992;-60
2023/07/09 00:35:50;;;;;;;6.10;2.10;;;;;;;24.72;56.13;100045.17;107752;1286;22002;-65
2023/07/09 00:38:22;;;;;;;6.00;2.10;;;;;;;24.75;56.20;100046.03;107796;1290;21988;-59
2023/07/09 00:40:56;;;;;;;5.10;2.00;;;;;;;24.78;56.01;100050.49;107853;1287;22458;-63
2023/07/09 00:43:22;;;;;;;4.00;2.10;;;;;;;24.80;56.01;100053.16;107857;1289;21989;-65
2023/07/09 00:46:16;;;;;;;6.50;2.80;;;;;;;24.83;55.99;100051.52;107806;1289;21990;-60
2023/07/09 00:48:42;;;;;;;6.10;1.90;;;;;;;24.85;55.94;100051.73;107780;1289;22005;-60
2023/07/09 00:51:12;;;;;;;4.20;1.90;;;;;;;24.87;56.05;100051.98;107894;1286;22175;-61
2023/07/09 00:53:45;;;;;;;6.60;2.40;;;;;;;24.87;56.08;100055.91;107967;1289;21998;-65
2023/07/09 00:56:16;;;;;;;2.80;2.00;;;;;;;24.84;56.32;100055.91;107793;1280;21989;-65
2023/07/09 00:58:42;;;;;;;3.70;1.80;;;;;;;24.83;56.65;100059.61;107882;1289;21977;-65
2023/07/09 01:01:11;;;;;;;5.10;1.90;;;;;;;24.81;56.65;100059.58;107845;1288;21996;-66
2023/07/09 01:03:40;;;;;;;4.70;2.00;;;;;;;24.80;56.40;100057.83;107926;1286;21976;-66
2023/07/09 01:06:06;;;;;;;4.30;1.90;;;;;;;24.79;56.35;100059.01;108008;1288;21984;-62
2023/07/09 01:08:33;;;;;;;7.20;1.90;;;;;;;24.76;56.31;100060.30;107979;1288;21992;-66
2023/07/09 01:11:02;;;;;;;6.00;2.20;;;;;;;24.74;56.38;100056.64;108012;1288;22029;-65
2023/07/09 01:13:28;;;;;;;5.10;2.10;;;;;;;24.73;56.22;100057.52;108032;1286;21993;-61
2023/07/09 01:15:55;;;;;;;7.00;2.00;;;;;;;24.70;56.05;100059.34;108047;1283;21989;-60
2023/07/09 01:18:22;;;;;;;6.80;2.10;;;;;;;24.68;56.11;100058.73;107863;1288;22029;-61
2023/07/09 01:20:47;;;;;;;8.30;2.00;;;;;;;24.65;55.85;100054.83;108053;1281;23143;-60
2023/07/09 01:23:14;;;;;;;3.70;2.10;;;;;;;24.64;55.91;100052.59;107983;1288;21987;-62
2023/07/09 01:25:52;;;;;;;3.80;2.00;;;;;;;24.61;55.93;100055.12;108006;1286;21998;-60
2023/07/09 01:28:18;;;;;;;6.10;2.20;;;;;;;24.59;55.97;100053.13;108012;1288;21992;-65
2023/07/09 01:30:44;;;;;;;6.00;1.90;;;;;;;24.61;56.24;100052.63;107995;1288;21979;-65
2023/07/09 01:33:10;;;;;;;6.00;2.00;;;;;;;24.60;56.40;100052.66;107795;1288;21984;-65
2023/07/09 01:35:37;;;;;;;4.20;2.30;;;;;;;24.60;56.45;100056.14;108038;1288;21989;-65
2023/07/09 01:38:06;;;;;;;4.90;2.10;;;;;;;24.58;56.30;100055.15;108080;1284;21995;-65
2023/07/09 01:40:32;;;;;;;4.70;2.30;;;;;;;24.56;56.12;100053.72;108074;1288;21995;-60
2023/07/09 01:42:58;;;;;;;5.80;1.90;;;;;;;24.58;56.25;100057.92;108039;1284;21995;-67
2023/07/09 01:45:24;;;;;;;5.10;2.00;;;;;;;24.57;55.67;100053.83;108046;1287;21990;-67
2023/07/09 01:47:50;;;;;;;7.20;2.10;;;;;;;24.56;55.51;100057.89;108084;1288;21995;-64
2023/07/09 01:50:16;;;;;;;9.30;2.10;;;;;;;24.57;55.48;100060.70;108003;1286;23712;-67
2023/07/09 01:52:43;;;;;;;7.90;2.30;;;;;;;24.57;55.25;100056.35;108037;1288;23605;-66
2023/07/09 01:55:10;;;;;;;5.20;2.30;;;;;;;24.59;55.00;100060.30;108029;1286;21987;-60
2023/07/09 01:57:36;;;;;;;4.70;1.90;;;;;;;24.61;54.91;100060.52;107891;1281;24311;-66
2023/07/09 02:00:05;;;;;;;7.80;2.30;;;;;;;24.63;54.73;100062.36;108048;1288;21989;-60
2023/07/09 02:02:32;;;;;;;8.10;2.30;;;;;;;24.65;54.51;100062.20;108038;1283;22010;-60
2023/07/09 02:04:58;;;;;;;7.80;2.40;;;;;;;24.69;54.50;100063.73;108059;1288;22023;-64
2023/07/09 02:07:24;;;;;;;6.20;2.30;;;;;;;24.70;54.07;100063.45;107973;1288;21991;-64
2023/07/09 02:09:49;;;;;;;9.80;2.20;;;;;;;24.75;54.09;100059.71;108090;1288;21994;-60
2023/07/09 02:12:15;;;;;;;5.90;2.00;;;;;;;24.76;53.60;100060.67;108008;1288;21993;-65
2023/07/09 02:14:42;;;;;;;6.30;2.80;;;;;;;24.74;53.23;100060.09;108074;1288;22036;-66
2023/07/09 02:17:08;;;;;;;4.00;1.80;;;;;;;24.74;53.10;100058.70;108103;1288;21987;-66
2023/07/09 02:19:34;;;;;;;6.40;2.30;;;;;;;24.72;52.82;100056.11;108087;1288;21992;-67
2023/07/09 02:22:00;;;;;;;7.70;2.60;;;;;;;24.72;52.84;100056.46;108062;1288;22026;-67
2023/07/09 02:24:27;;;;;;;4.50;2.10;;;;;;;24.74;52.89;100058.80;108003;1288;21990;-67
2023/07/09 02:26:54;;;;;;;6.80;2.20;;;;;;;24.75;52.49;100062.04;107979;1288;21989;-60
2023/07/09 02:29:19;;;;;;;5.10;2.60;;;;;;;24.75;52.27;100060.50;107940;1284;22069;-60
2023/07/09 02:31:45;;;;;;;6.00;2.30;;;;;;;24.79;52.26;100065.46;107817;1289;21993;-60
2023/07/09 02:34:11;;;;;;;4.50;2.00;;;;;;;24.83;52.31;100066.42;107843;1289;21989;-61
2023/07/09 02:36:37;;;;;;;5.00;2.30;;;;;;;24.77;52.39;100062.54;107812;1283;22003;-60
2023/07/09 02:39:03;;;;;;;4.10;2.00;;;;;;;24.77;52.50;100065.06;107848;1283;22092;-68
2023/07/09 02:41:29;;;;;;;6.80;2.20;;;;;;;24.82;52.29;100059.87;107739;1288;22066;-68
2023/07/09 02:43:55;;;;;;;6.10;2.30;;;;;;;24.83;52.71;100060.48;107996;1286;21997;-68
2023/07/09 02:46:21;;;;;;;6.20;2.00;;;;;;;24.83;52.57;100061.39;107961;1288;21989;-60
2023/07/09 02:48:46;;;;;;;4.30;1.90;;;;;;;24.79;52.84;100060.77;107982;1283;22143;-67
2023/07/09 02:51:12;;;;;;;6.20;1.90;;;;;;;24.88;52.49;100063.19;107955;1287;22063;-60
2023/07/09 02:53:37;;;;;;;5.70;1.70;;;;;;;24.92;52.40;100067.19;107995;1280;21992;-68
2023/07/09 02:56:03;;;;;;;7.60;2.60;;;;;;;24.94;52.73;100071.65;107995;1288;21997;-67
2023/07/09 02:58:29;;;;;;;3.70;2.00;;;;;;;24.95;52.44;100067.80;108015;1288;21997;-68
2023/07/09 03:00:55;;;;;;;6.90;2.60;;;;;;;24.96;52.27;100068.82;108026;1288;21990;-60
2023/07/09 03:03:21;;;;;;;4.50;2.00;;;;;;;24.96;52.38;100066.14;107995;1288;21985;-61
2023/07/09 03:05:47;;;;;;;3.30;1.90;;;;;;;24.96;52.26;100064.15;107976;1288;21991;-60
2023/07/09 03:08:14;;;;;;;5.50;2.00;;;;;;;24.97;52.08;100059.77;107712;1288;21980;-66
2023/07/09 03:10:40;;;;;;;4.30;1.70;;;;;;;24.99;52.12;100061.78;108039;1288;21992;-61
2023/07/09 03:13:05;;;;;;;9.20;2.20;;;;;;;24.93;52.34;100066.95;107986;1288;22167;-67
2023/07/09 03:15:31;;;;;;;5.90;2.40;;;;;;;24.85;52.23;100064.08;108137;1288;23003;-61
2023/07/09 03:17:57;;;;;;;6.20;2.40;;;;;;;24.95;52.19;100064.96;108173;1288;21989;-62
2023/07/09 03:20:25;;;;;;;4.60;1.90;;;;;;;25.00;51.85;100064.55;107980;1287;22010;-60
2023/07/09 03:22:50;;;;;;;3.20;1.90;;;;;;;25.03;51.71;100063.10;109084;1283;21990;-68
2023/07/09 03:25:16;;;;;;;4.00;2.00;;;;;;;25.02;51.49;100061.02;108002;1288;21995;-61
2023/07/09 03:27:42;;;;;;;5.00;2.00;;;;;;;24.97;51.52;100060.11;108034;1288;22001;-67
2023/07/09 03:30:08;;;;;;;3.70;2.20;;;;;;;24.96;51.56;100067.73;107887;1289;22043;-68
2023/07/09 03:32:33;;;;;;;4.40;2.10;;;;;;;24.99;51.45;100062.34;107925;1289;21992;-61
2023/07/09 03:34:59;;;;;;;6.00;2.10;;;;;;;25.02;51.36;100060.27;107848;1289;21989;-70
2023/07/09 03:37:25;;;;;;;3.80;2.30;;;;;;;24.99;51.67;100064.27;107831;1289;23025;-62
2023/07/09 03:39:50;;;;;;;4.40;1.80;;;;;;;25.01;51.56;100065.23;107819;1289;21997;-68
2023/07/09 03:42:16;;;;;;;3.50;2.00;;;;;;;24.99;51.72;100063.40;107707;1288;22266;-70
2023/07/09 03:44:42;;;;;;;4.60;2.20;;;;;;;24.98;51.91;100066.14;108002;1281;22043;-71
2023/07/09 03:47:08;;;;;;;5.10;2.00;;;;;;;24.79;52.69;100068.14;108009;1284;21987;-61
2023/07/09 03:49:34;;;;;;;3.30;2.20;;;;;;;24.73;52.72;100071.46;108029;1288;21990;-62
2023/07/09 03:51:59;;;;;;;7.60;2.10;;;;;;;24.72;52.77;100074.42;108009;1288;21996;-70
2023/07/09 03:54:25;;;;;;;6.00;2.50;;;;;;;24.94;52.23;100074.21;108066;1288;21990;-62
2023/07/09 03:56:53;;;;;;;4.00;1.50;;;;;;;25.03;51.72;100073.46;107983;1288;22252;-66
2023/07/09 03:59:19;;;;;;;4.50;2.10;;;;;;;25.04;51.44;100070.52;108025;1280;21995;-67
2023/07/09 04:01:45;;;;;;;6.40;2.10;;;;;;;25.10;51.55;100068.86;107811;1288;21987;-67
2023/07/09 04:04:14;;;;;;;5.50;2.30;;;;;;;25.13;51.37;100073.63;108060;1287;21983;-60
2023/07/09 04:06:40;;;;;;;5.20;2.10;;;;;;;25.11;51.12;100075.00;107845;1288;21987;-66
2023/07/09 04:09:05;;;;;;;5.30;2.60;;;;;;;25.18;51.26;100075.39;108070;1288;21986;-62
2023/07/09 04:11:31;;;;;;;4.60;2.40;;;;;;;25.21;50.91;100076.96;108050;1287;22247;-64
2023/07/09 04:13:56;;;;;;;3.20;1.90;;;;;;;25.21;50.82;100075.47;108007;1288;21992;-63
2023/07/09 04:16:22;;;;;;;6.30;2.10;;;;;;;25.23;50.80;100076.55;108003;1288;21999;-60
2023/07/09 04:18:48;;;;;;;3.60;2.10;;;;;;;25.24;50.33;100075.05;108035;1285;21994;-61
2023/07/09 04:21:14;;;;;;;5.80;2.20;;;;;;;25.29;50.45;100077.76;108045;1288;21998;-61
2023/07/09 04:23:39;;;;;;;4.30;1.90;;;;;;;25.37;50.35;100079.95;107841;1288;22111;-69
2023/07/09 04:26:09;;;;;;;3.50;2.00;;;;;;;25.44;50.22;100079.64;108008;1288;22058;-66
2023/07/09 04:28:38;;;;;;;7.60;1.90;;;;;;;25.51;50.06;100078.20;108054;1286;23676;-60
2023/07/09 04:31:03;;;;;;;3.60;2.10;;;;;;;25.54;49.66;100079.95;107947;1289;21993;-61
2023/07/09 04:33:29;;;;;;;6.90;2.90;;;;;;;25.56;49.51;100079.11;107943;1289;21998;-70
2023/07/09 04:35:57;;;;;;;3.10;2.00;;;;;;;25.59;49.90;100086.77;107970;1289;21993;-70
2023/07/09 04:38:24;;;;;;;5.60;2.20;;;;;;;25.64;50.21;100088.52;107866;1289;21993;-67
2023/07/09 04:40:50;;;;;;;5.60;2.30;;;;;;;25.66;49.56;100091.89;107825;1289;21994;-67
2023/07/09 04:43:15;;;;;;;6.00;2.00;;;;;;;25.68;49.27;100095.50;107943;1288;22042;-67
2023/07/09 04:45:41;;;;;;;5.40;2.30;;;;;;;25.73;49.59;100093.91;108007;1286;22030;-60
2023/07/09 04:48:06;;;;;;;4.40;2.20;;;;;;;25.76;49.50;100091.84;107992;1283;22001;-59
2023/07/09 04:50:33;;;;;;;5.30;2.10;;;;;;;25.79;49.24;100092.46;108002;1281;21992;-60
2023/07/09 04:52:59;;;;;;;5.20;1.80;;;;;;;25.85;49.57;100094.19;108078;1281;21992;-67
2023/07/09 04:55:28;;;;;;;4.00;1.80;;;;;;;25.87;48.87;100096.49;108033;1288;22030;-61
2023/07/09 04:57:53;;;;;;;4.10;2.30;;;;;;;25.91;48.94;100097.08;108064;1285;21991;-68
2023/07/09 05:00:19;;;;;;;3.60;1.80;;;;;;;25.98;49.11;100103.00;108016;1288;21997;-66
2023/07/09 05:02:45;;;;;;;3.30;1.70;;;;;;;26.03;49.00;100104.07;108032;1288;22012;-72
2023/07/09 05:05:11;;;;;;;5.70;2.10;;;;;;;26.12;48.94;100105.48;108011;1280;21993;-69
2023/07/09 05:07:39;;;;;;;6.30;1.90;;;;;;;26.24;48.79;100105.78;108044;1288;22026;-61
2023/07/09 05:10:06;;;;;;;5.50;2.20;;;;;;;26.33;48.29;100103.44;108040;1288;21998;-69
2023/07/09 05:12:31;;;;;;;3.70;1.80;;;;;;;26.43;48.67;100104.73;108002;1276;21996;-62
2023/07/09 05:14:57;;;;;;;4.60;2.00;;;;;;;26.54;48.73;100111.08;107946;1288;22123;-61
2023/07/09 05:17:23;;;;;;;5.80;2.50;;;;;;;26.69;48.89;100113.18;108002;1287;21994;-61
2023/07/09 05:19:50;;;;;;;8.40;2.20;;;;;;;26.86;48.62;100110.94;108055;1284;21993;-60
2023/07/09 05:22:16;;;;;;;8.10;2.30;;;;;;;27.01;48.11;100111.42;108017;1288;21993;-60
2023/07/09 05:24:42;;;;;;;8.60;2.60;;;;;;;27.13;47.32;100116.55;108023;1288;22030;-60
2023/07/09 05:27:08;;;;;;;5.40;1.90;;;;;;;27.23;46.71;100114.02;107976;1288;22034;-67
2023/07/09 05:29:34;;;;;;;4.10;2.00;;;;;;;27.30;46.43;100110.20;108024;1288;21992;-60
2023/07/09 05:32:00;;;;;;;8.40;3.00;;;;;;;27.41;46.39;100112.50;107999;1288;21989;-60
2023/07/09 05:34:25;;;;;;;6.50;2.40;;;;;;;27.52;46.17;100114.98;108011;1288;22024;-65
2023/07/09 05:36:51;;;;;;;7.30;2.40;;;;;;;27.64;46.25;100115.36;107989;1280;21999;-61
2023/07/09 05:39:17;;;;;;;4.40;2.20;;;;;;;27.72;45.68;100115.38;108000;1288;21990;-61
2023/07/09 05:41:43;;;;;;;4.50;2.00;;;;;;;27.83;45.77;100115.36;107998;1288;22002;-67
2023/07/09 05:44:09;;;;;;;4.90;2.30;;;;;;;27.90;45.42;100118.29;108087;1288;22008;-65
2023/07/09 05:46:36;;;;;;;3.70;1.80;;;;;;;27.95;45.31;100117.30;108160;1288;21994;-65
2023/07/09 05:49:03;;;;;;;5.80;2.70;;;;;;;28.04;45.35;100112.59;107904;1288;21992;-61
2023/07/09 05:51:29;;;;;;;4.70;2.00;;;;;;;28.17;45.07;100116.65;108065;1288;22031;-61
2023/07/09 05:53:55;;;;;;;6.60;2.40;;;;;;;28.24;44.50;100119.65;108032;1288;21992;-60
2023/07/09 05:56:20;;;;;;;4.90;2.90;;;;;;;28.13;45.13;100120.23;108006;1286;21992;-61
2023/07/09 05:58:46;;;;;;;5.50;2.40;;;;;;;28.34;44.27;100121.20;108025;1288;21995;-66
2023/07/09 06:01:12;;;;;;;5.40;2.00;;;;;;;28.56;43.56;100114.38;108005;1288;22023;-68
2023/07/09 06:03:38;;;;;;;5.30;2.20;;;;;;;28.64;43.22;100114.86;107965;1283;21989;-65
2023/07/09 06:06:04;;;;;;;6.70;3.50;;;;;;;28.70;43.03;100118.08;107999;1280;21986;-67
2023/07/09 06:08:30;;;;;;;4.80;2.10;;;;;;;28.80;43.20;100122.13;108023;1288;22001;-63
2023/07/09 06:11:01;;;;;;;4.20;2.30;;;;;;;28.84;41.88;100122.29;108053;1288;21997;-67
2023/07/09 06:13:30;;;;;;;5.00;2.20;;;;;;;28.89;42.27;100125.97;108071;1288;21991;-65
2023/07/09 06:15:59;;;;;;;5.10;2.10;;;;;;;28.97;42.76;100129.94;108071;1284;23709;-62
2023/07/09 06:18:29;;;;;;;6.20;2.00;;;;;;;29.08;43.03;100129.13;108126;1276;21989;-61
2023/07/09 06:20:56;;;;;;;9.80;5.00;;;;;;;29.20;42.76;100125.59;108149;1288;21981;-60
2023/07/09 06:23:21;;;;;;;5.90;2.60;;;;;;;29.30;42.50;100124.15;108120;1284;21986;-62
2023/07/09 06:25:47;;;;;;;5.60;2.60;;;;;;;29.37;41.84;100127.55;108039;1288;21993;-67
2023/07/09 06:28:15;;;;;;;6.20;2.60;;;;;;;29.42;41.36;100124.48;108010;1280;21989;-62
2023/07/09 06:30:41;;;;;;;6.60;3.10;;;;;;;29.44;41.17;100123.19;107938;1289;22000;-64
2023/07/09 06:33:07;;;;;;;8.00;2.70;;;;;;;29.51;41.09;100120.89;107853;1289;21996;-69
2023/07/09 06:35:32;;;;;;;5.60;1.90;;;;;;;29.54;40.86;100120.27;107842;1289;22473;-61
2023/07/09 06:37:58;;;;;;;5.40;1.90;;;;;;;29.64;41.23;100124.27;107913;1289;21997;-67
2023/07/09 06:40:24;;;;;;;3.60;2.30;;;;;;;29.75;41.11;100122.02;107949;1289;22033;-62
2023/07/09 06:42:50;;;;;;;4.40;2.10;;;;;;;29.82;40.79;100124.02;107993;1288;21991;-62
2023/07/09 06:45:16;;;;;;;5.30;2.40;;;;;;;29.92;40.85;100123.13;108048;1288;21990;-61
2023/07/09 06:47:42;;;;;;;6.10;3.50;;;;;;;29.97;40.29;100120.58;108089;1284;22005;-61
2023/07/09 06:50:08;;;;;;;8.10;2.90;;;;;;;30.14;39.97;100118.74;108141;1288;21996;-67
2023/07/09 06:52:34;;;;;;;4.00;2.30;;;;;;;30.22;40.02;100118.30;108046;1280;21990;-62
2023/07/09 06:54:59;;;;;;;3.70;2.00;;;;;;;30.35;40.91;100118.52;108078;1288;21990;-63
2023/07/09 06:57:25;;;;;;;5.90;2.00;;;;;;;30.40;40.44;100121.60;108023;1288;21993;-64
2023/07/09 06:59:50;;;;;;;6.80;2.10;;;;;;;30.41;40.84;100126.43;108089;1288;21997;-69
2023/07/09 07:02:18;;;;;;;2.80;1.70;;;;;;;30.47;39.79;100128.92;108008;1286;21996;-67
2023/07/09 07:04:44;;;;;;;8.70;2.30;;;;;;;30.57;39.50;100125.17;108024;1277;21998;-61
2023/07/09 07:07:11;;;;;;;4.20;1.80;;;;;;;30.66;39.71;100123.81;108030;1288;21991;-67
2023/07/09 07:09:38;;;;;;;8.00;2.30;;;;;;;30.73;38.86;100120.33;108110;1288;21997;-69
2023/07/09 07:12:05;;;;;;;4.60;2.10;;;;;;;30.81;38.70;100119.74;107980;1283;21992;-61
2023/07/09 07:14:31;;;;;;;6.10;2.00;;;;;;;30.90;39.08;100120.94;108095;1288;21995;-68
2023/07/09 07:16:57;;;;;;;5.40;2.40;;;;;;;31.05;39.84;100127.57;108034;1287;21989;-68
2023/07/09 07:19:23;;;;;;;3.30;1.80;;;;;;;31.13;39.37;100118.19;108036;1288;21994;-61
2023/07/09 07:21:49;;;;;;;5.60;2.10;;;;;;;31.18;38.97;100122.08;108112;1288;21988;-70
2023/07/09 07:24:14;;;;;;;3.60;1.80;;;;;;;31.35;39.51;100119.80;108046;1288;21994;-61
2023/07/09 07:26:40;;;;;;;5.00;2.30;;;;;;;31.45;39.30;100121.29;108032;1288;21988;-62
2023/07/09 07:29:06;;;;;;;7.00;1.90;;;;;;;31.54;38.60;100123.95;108001;1288;21983;-60
2023/07/09 07:31:31;;;;;;;7.50;2.20;;;;;;;31.63;38.66;100115.94;108005;1288;21994;-67
2023/07/09 07:33:58;;;;;;;4.10;2.00;;;;;;;31.73;38.71;100114.36;107984;1288;21995;-65
2023/07/09 07:36:24;;;;;;;3.40;1.80;;;;;;;31.84;38.41;100120.13;108014;1277;21989;-67
2023/07/09 07:38:49;;;;;;;9.00;2.10;;;;;;;31.95;39.30;100123.67;108053;1284;22008;-62
2023/07/09 07:41:15;;;;;;;3.70;2.10;;;;;;;31.98;38.11;100117.55;107824;1286;21990;-67
2023/07/09 07:43:40;;;;;;;3.90;2.00;;;;;;;32.18;39.14;100118.36;108043;1288;21990;-68
2023/07/09 07:46:07;;;;;;;5.90;1.90;;;;;;;32.33;38.03;100118.96;107997;1283;22000;-61
2023/07/09 07:48:33;;;;;;;3.90;2.10;;;;;;;32.42;38.08;100116.84;107981;1288;22026;-62
2023/07/09 07:51:01;;;;;;;5.00;2.10;;;;;;;32.46;37.86;100118.11;108025;1288;21987;-67
2023/07/09 07:53:29;;;;;;;3.90;2.00;;;;;;;32.49;37.56;100114.45;108034;1288;22191;-61
2023/07/09 07:55:56;;;;;;;7.00;1.90;;;;;;;32.49;36.42;100118.10;108016;1279;21995;-70
2023/07/09 07:58:22;;;;;;;7.40;3.60;;;;;;;32.45;36.37;100118.34;107973;1288;21992;-61
2023/07/09 08:00:51;;;;;;;11.80;5.90;;;;;;;32.46;36.19;100115.48;108046;1288;21998;-71
2023/07/09 08:03:16;;;;;;;12.40;6.50;;;;;;;32.54;35.84;100114.48;107990;1287;21998;-69
2023/07/09 08:05:42;;;;;;;9.50;2.30;;;;;;;32.70;35.76;100117.59;108012;1288;21984;-67
2023/07/09 08:08:08;;;;;;;4.40;2.40;;;;;;;32.69;34.72;100117.70;108009;1288;21984;-63
2023/07/09 08:10:34;;;;;;;4.80;2.10;;;;;;;32.75;35.55;100119.77;108085;1288;22000;-66
2023/07/09 08:12:59;;;;;;;5.80;2.40;;;;;;;32.86;36.14;100120.45;108013;1288;21992;-67
2023/07/09 08:15:25;;;;;;;4.80;2.30;;;;;;;32.87;35.12;100121.45;107983;1288;21990;-70
2023/07/09 08:17:51;;;;;;;7.60;1.90;;;;;;;32.98;34.95;100120.03;108046;1287;21989;-69
2023/07/09 08:20:17;;;;;;;4.00;2.80;;;;;;;33.11;35.49;100116.20;107845;1288;23988;-67
2023/07/09 08:22:43;;;;;;;4.20;2.30;;;;;;;33.21;35.60;100120.13;108117;1288;22010;-67
2023/07/09 08:25:09;;;;;;;7.00;2.20;;;;;;;33.32;35.44;100122.73;108081;1288;21995;-69
2023/07/09 08:27:35;;;;;;;3.80;2.40;;;;;;;33.40;34.24;100125.52;108004;1288;21990;-61
2023/07/09 08:30:01;;;;;;;4.50;1.70;;;;;;;33.50;33.83;100126.22;108061;1288;21989;-67
2023/07/09 08:32:29;;;;;;;5.80;2.00;;;;;;;33.54;33.48;100120.18;108011;1288;21994;-60
2023/07/09 08:34:54;;;;;;;6.50;1.80;;;;;;;33.55;33.36;100126.38;108016;1287;21992;-60
2023/07/09 08:37:20;;;;;;;7.50;2.10;;;;;;;33.67;34.22;100128.52;107986;1288;21990;-67
2023/07/09 08:39:46;;;;;;;7.40;2.50;;;;;;;33.72;34.16;100132.45;108021;1280;21976;-71
2023/07/09 08:42:23;;;;;;;7.80;1.70;;;;;;;33.70;33.84;100136.02;108092;1287;24302;-69
2023/07/09 08:45:13;;;;;;;4.40;2.10;;;;;;;33.64;33.54;100142.34;107815;1286;21997;-63
2023/07/09 08:47:51;;;;;;;;;;;;;;;33.54;33.90;100141.09;107965;1288;21977;-67
2023/07/09 08:50:45;;;;;;;4.50;1.70;;;;;;;33.50;33.77;100146.41;107961;1288;23746;-62
2023/07/09 08:53:17;;;;;;;3.90;2.00;;;;;;;33.47;33.61;100147.23;107934;1288;22462;-62
2023/07/09 08:55:43;;;;;;;4.20;1.60;;;;;;;33.48;33.96;100150.83;107983;1288;21996;-70
2023/07/09 08:58:20;;;;;;;6.30;2.00;;;;;;;33.46;33.75;100153.99;107798;1288;22024;-70
2023/07/09 09:01:02;;;;;;;2.90;1.60;;;;;;;33.54;34.22;100153.59;108043;1286;23057;-68
2023/07/09 09:03:44;;;;;;;8.80;1.90;;;;;;;33.59;33.92;100153.95;108061;1288;22438;-62
2023/07/09 09:06:17;;;;;;;4.00;2.00;;;;;;;33.73;33.52;100155.95;108069;1288;21982;-68
2023/07/09 09:09:09;;;;;;;7.60;2.10;;;;;;;33.80;33.52;100159.91;108012;1288;21995;-68
2023/07/09 09:11:41;;;;;;;5.40;2.20;;;;;;;33.87;32.71;100159.52;107922;1288;22006;-70
2023/07/09 09:14:17;;;;;;;7.80;1.90;;;;;;;33.93;32.45;100161.05;108068;1288;22925;-68
2023/07/09 09:16:43;;;;;;;4.70;2.00;;;;;;;34.08;33.17;100168.00;108136;1288;21992;-68
2023/07/09 09:19:20;;;;;;;7.50;2.00;;;;;;;34.14;32.33;100174.60;108024;1286;21982;-63
2023/07/09 09:21:46;;;;;;;4.70;1.90;;;;;;;34.28;32.37;100175.63;107998;1288;21946;-62
2023/07/09 09:24:18;;;;;;;5.60;2.00;;;;;;;34.45;33.07;100180.55;107870;1288;21996;-68
2023/07/09 09:26:44;;;;;;;9.50;1.90;;;;;;;34.51;31.89;100181.61;108036;1280;22177;-66
2023/07/09 09:29:11;;;;;;;9.00;2.30;;;;;;;34.63;32.51;100182.70;108041;1288;21989;-67
2023/07/09 09:31:39;;;;;;;6.20;1.90;;;;;;;34.68;33.03;100183.48;107999;1283;22155;-63
2023/07/09 09:34:05;;;;;;;8.00;2.30;;;;;;;34.76;32.79;100182.61;107731;1285;21999;-62
2023/07/09 09:36:31;;;;;;;6.60;2.10;;;;;;;34.77;32.01;100181.37;107989;1287;22053;-64
2023/07/09 09:39:01;;;;;;;6.00;2.10;;;;;;;34.72;32.34;100186.83;107953;1288;22225;-66
2023/07/09 09:41:30;;;;;;;3.90;1.90;;;;;;;34.69;32.67;100188.86;108061;1284;21988;-63
2023/07/09 09:43:57;;;;;;;5.70;1.70;;;;;;;34.89;32.47;100186.73;107996;1288;21984;-68
2023/07/09 09:46:24;;;;;;;2.80;1.80;;;;;;;34.75;31.38;100189.94;107987;1280;22457;-67
2023/07/09 09:48:53;;;;;;;4.40;1.90;;;;;;;34.83;32.00;100192.48;108001;1288;21990;-67
2023/07/09 09:51:19;;;;;;;6.70;2.10;;;;;;;34.97;32.18;100191.95;107773;1288;22068;-64
2023/07/09 09:53:49;;;;;;;4.10;1.80;;;;;;;35.09;32.41;100191.10;107980;1288;22036;-68
2023/07/09 09:56:35;;;;;;;6.50;2.00;;;;;;;35.12;31.94;100196.34;107727;1286;21992;-69
2023/07/09 09:59:02;;;;;;;8.00;2.10;;;;;;;35.19;32.32;100195.18;107964;1288;23625;-68
2023/07/09 10:01:30;;;;;;;5.00;1.80;;;;;;;35.15;31.29;100194.86;108022;1281;21986;-63
2023/07/09 10:03:58;;;;;;;4.10;2.20;;;;;;;35.08;31.32;100196.79;108002;1288;22030;-64
2023/07/09 10:06:38;;;;;;;3.40;1.80;;;;;;;35.10;30.85;100194.65;108019;1280;22063;-65
2023/07/09 10:09:04;;;;;;;;;;;;;;;35.24;30.20;100195.30;107719;1286;21960;-64
2023/07/09 10:11:38;;;;;;;4.60;1.60;;;;;;;35.30;30.03;100202.44;108012;1288;22000;-65
2023/07/09 10:14:13;;;;;;;5.90;1.70;;;;;;;35.38;30.79;100201.05;108005;1288;21990;-68
2023/07/09 10:16:44;;;;;;;5.00;1.70;;;;;;;35.47;30.10;100201.57;108030;1288;21987;-62
2023/07/09 10:19:29;;;;;;;4.50;1.70;;;;;;;35.58;30.63;100201.99;108045;1288;21999;-68
2023/07/09 10:22:07;;;;;;;4.20;1.60;;;;;;;35.67;29.73;100204.99;108034;1288;22032;-67
2023/07/09 10:24:33;;;;;;;5.30;1.60;;;;;;;35.63;29.41;100205.45;108089;1287;21997;-62
2023/07/09 10:27:17;;;;;;;4.00;1.80;;;;;;;35.46;29.29;100209.55;108021;1288;21990;-65
2023/07/09 10:29:56;;;;;;;4.40;1.60;;;;;;;35.46;29.47;100204.16;108067;1288;21992;-63
2023/07/09 10:32:40;;;;;;;4.70;1.90;;;;;;;35.60;29.57;100205.10;108108;1288;22012;-63
2023/07/09 10:35:16;;;;;;;5.00;1.80;;;;;;;35.77;28.81;100205.04;107981;1288;22861;-63
2023/07/09 10:38:04;;;;;;;7.60;2.20;;;;;;;35.91;27.54;100204.60;108048;1288;21991;-67
2023/07/09 10:40:52;;;;;;;7.80;2.20;;;;;;;35.91;27.46;100209.83;108058;1284;22013;-68
2023/07/09 10:43:44;;;;;;;3.40;2.00;;;;;;;35.89;28.04;100214.14;107871;1289;21995;-67
2023/07/09 10:46:19;;;;;;;6.50;1.50;;;;;;;35.83;27.78;100211.33;107876;1283;21990;-65
2023/07/09 10:48:48;;;;;;;7.00;2.00;;;;;;;35.85;27.81;100212.70;107870;1289;23451;-66
2023/07/09 10:51:19;;;;;;;5.30;1.80;;;;;;;35.80;27.77;100211.02;107938;1289;21994;-64
2023/07/09 10:53:47;;;;;;;3.90;2.20;;;;;;;35.75;28.13;100206.03;107901;1289;21997;-66
2023/07/09 10:56:16;;;;;;;4.90;1.80;;;;;;;35.66;27.76;100208.18;108932;1288;21995;-64
2023/07/09 10:58:53;;;;;;;6.70;1.80;;;;;;;35.49;27.87;100203.52;107844;1288;21993;-60
2023/07/09 11:01:29;;;;;;;6.30;1.90;;;;;;;35.24;27.71;100209.39;108031;1288;21992;-68
2023/07/09 11:03:58;;;;;;;6.00;2.70;;;;;;;35.00;28.17;100213.08;108100;1280;21996;-64
2023/07/09 11:06:30;;;;;;;4.80;1.90;;;;;;;34.87;28.28;100214.42;108025;1277;22022;-68
2023/07/09 11:08:56;;;;;;;5.30;1.60;;;;;;;34.67;28.64;100214.74;107987;1288;21994;-68
2023/07/09 11:11:31;;;;;;;3.90;1.70;;;;;;;34.58;28.63;100212.76;108012;1288;22002;-67
2023/07/09 11:14:00;;;;;;;3.30;1.60;;;;;;;34.49;28.81;100211.23;108034;1286;22002;-68
2023/07/09 11:16:38;;;;;;;6.00;2.10;;;;;;;34.49;28.71;100218.00;108041;1288;23179;-67
2023/07/09 11:19:06;;;;;;;4.80;1.80;;;;;;;34.48;29.08;100215.54;108010;1288;22052;-68
2023/07/09 11:21:32;;;;;;;5.60;2.40;;;;;;;34.50;29.41;100220.13;108016;1278;21996;-67